Time;durP1;ratioP1;P1;durP2;ratioP2;P2;SDS_P1;SDS_P2;PMS_P1;PMS_P2;Temp;Humidity;BMP_temperature;BMP_pressure;BME280_temperature;BME280_humidity;BME280_pressure;Samples;Min_cycle;Max_cycle;Signal;HPM_P1;HPM_P2
2024/01/08 18:53:24;;;;;;;3.85;2.83;;;-5.00;86.60;;;;;;5092814;27;20389;-83
2024/01/08 18:59:44;;;;;;;5.28;3.45;;;-3.90;90.90;;;;;;5033356;28;20472;-86
2024/01/08 19:02:35;;;;;;;;;;;-4.00;85.20;;;;;;5044696;28;20047;-86
2024/01/08 19:05:19;;;;;;;5.93;3.78;;;-3.60;90.40;;;;;;5061480;28;20009;-85
2024/01/08 19:07:54;;;;;;;7.70;3.30;;;-3.40;91.10;;;;;;5061681;28;20048;-89
2024/01/08 19:10:41;;;;;;;;;;;;;;;;;;;;;
2024/01/08 19:13:14;;;;;;;3.97;2.88;;;-3.50;90.80;;;;;;5062852;28;20048;-89
2024/01/08 19:15:55;;;;;;;5.38;2.95;;;-3.10;90.30;;;;;;5061080;28;20083;-88
2024/01/08 19:18:27;;;;;;;16.85;6.35;;;-3.50;89.90;;;;;;5061267;28;20136;-89
2024/01/08 19:21:00;;;;;;;3.45;2.38;;;-2.70;90.30;;;;;;5062320;28;20040;-87
2024/01/08 19:24:06;;;;;;;8.30;2.70;;;-2.80;90.00;;;;;;5059616;28;20522;-86
2024/01/08 19:26:50;;;;;;;4.45;2.40;;;-3.10;89.40;;;;;;5062391;28;20049;-84
2024/01/08 19:29:48;;;;;;;;;;;;;;;;;;;;;
2024/01/08 19:32:45;;;;;;;3.65;2.30;;;-3.30;88.80;;;;;;5075561;28;20102;-87
2024/01/08 19:35:30;;;;;;;5.50;2.58;;;-3.20;89.70;;;;;;4982366;28;20253;-87
2024/01/08 19:38:06;;;;;;;5.38;3.05;;;-2.40;90.60;;;;;;5061997;28;20052;-86
2024/01/08 19:40:49;;;;;;;4.95;3.33;;;-3.30;90.10;;;;;;5070861;28;20376;-87
2024/01/08 19:43:24;;;;;;;4.78;2.70;;;-3.00;89.60;;;;;;5078123;28;20052;-86
2024/01/08 19:46:05;;;;;;;6.15;2.55;;;-3.30;90.30;;;;;;5061406;28;20048;-87
2024/01/08 19:48:38;;;;;;;7.53;3.78;;;-3.00;90.70;;;;;;5063077;28;20155;-87
2024/01/08 19:51:34;;;;;;;4.82;2.50;;;-3.10;91.00;;;;;;5061722;28;20052;-84
2024/01/08 19:54:20;;;;;;;;;;;;;;;;;;;;;
2024/01/08 19:56:51;;;;;;;5.32;2.38;;;-2.70;90.90;;;;;;5061841;28;20155;-86
2024/01/08 19:59:31;;;;;;;5.00;3.22;;;-2.80;90.70;;;;;;5062248;28;20053;-84
2024/01/08 20:02:00;;;;;;;6.00;2.83;;;-2.30;90.80;;;;;;5063286;28;20501;-84
2024/01/08 20:04:42;;;;;;;4.32;2.95;;;-2.70;90.90;;;;;;5049069;28;20570;-86
2024/01/08 21:54:28;;;;;;;;;;;;;;;;;;;;;
2024/01/08 21:57:07;;;;;;;7.00;3.80;;;-2.60;90.90;;;;;;5007896;28;20058;-85
2024/01/08 21:59:53;;;;;;;8.20;3.70;;;-3.00;90.00;;;;;;5019481;28;20053;-84
2024/01/08 22:03:00;;;;;;;;;;;;;;;;;;;;;
2024/01/08 22:07:25;;;;;;;;;;;;;;;;;;;;;
2024/01/08 22:19:04;;;;;;;;;;;;;;;;;;;;;
2024/01/08 22:51:31;;;;;;;;;;;;;;;;;;;;;
2024/01/08 23:16:07;;;;;;;;;;;;;;;;;;;;;
2024/01/08 23:20:55;;;;;;;;;;;;;;;;;;;;;
2024/01/08 23:24:09;;;;;;;;;;;;;;;;;;;;;
2024/01/08 23:37:11;;;;;;;3.92;2.65;;;-1.90;80.20;;;;;;5068126;27;20439;-83
2024/01/08 23:39:39;;;;;;;4.13;2.40;;;-1.80;80.20;;;;;;5064051;28;20059;-84
2024/01/08 23:42:07;;;;;;;4.55;2.58;;;-1.80;80.60;;;;;;5046037;28;20079;-84
2024/01/08 23:44:35;;;;;;;2.53;2.33;;;-1.70;80.90;;;;;;5061936;28;20045;-83
2024/01/08 23:47:02;;;;;;;2.17;2.00;;;-1.60;84.40;;;;;;5063851;28;20049;-84
2024/01/08 23:49:37;;;;;;;4.00;2.70;;;-1.50;82.10;;;;;;5062382;28;20040;-84
2024/01/08 23:52:10;;;;;;;3.00;2.65;;;-1.60;82.10;;;;;;5064723;28;20135;-83
2024/01/08 23:54:39;;;;;;;3.38;2.50;;;-1.60;83.20;;;;;;5049386;28;20064;-82
2024/01/08 23:57:06;;;;;;;3.33;2.60;;;-1.50;82.30;;;;;;5063003;28;20106;-84
2024/01/08 23:59:37;;;;;;;3.03;2.65;;;-1.60;77.30;;;;;;5061800;28;20044;-84
